Time;durP1;ratioP1;P1;durP2;ratioP2;P2;SDS_P1;SDS_P2;PMS_P1;PMS_P2;Temp;Humidity;BMP_temperature;BMP_pressure;BME280_temperature;BME280_humidity;BME280_pressure;Samples;Min_cycle;Max_cycle;Signal;HPM_P1;HPM_P2
2023/12/06 00:01:06;;;;;;;65.93;33.80;;;;;;;;;;772851;180;967642;-64
2023/12/06 00:03:32;;;;;;;54.60;33.28;;;;;;;;;;773817;180;918695;-63
2023/12/06 00:05:57;;;;;;;54.50;33.77;;;;;;;;;;780236;180;816808;-62
2023/12/06 00:08:23;;;;;;;60.47;33.20;;;;;;;;;;773031;178;919529;-65
2023/12/06 00:10:49;;;;;;;60.97;30.87;;;;;;;;;;768845;180;918177;-63
2023/12/06 00:13:15;;;;;;;57.07;30.10;;;;;;;;;;777256;180;918941;-63
2023/12/06 00:15:41;;;;;;;55.30;30.70;;;;;;;;;;773736;178;919581;-64
2023/12/06 00:18:07;;;;;;;55.10;30.97;;;;;;;;;;771296;180;918050;-64
2023/12/06 00:20:32;;;;;;;56.90;32.27;;;;;;;;;;769106;180;919220;-64
2023/12/06 00:22:58;;;;;;;58.90;31.90;;;;;;;;;;777386;181;819520;-64
2023/12/06 00:25:24;;;;;;;56.83;32.80;;;;;;;;;;766270;180;817287;-63
2023/12/06 00:27:50;;;;;;;49.70;28.80;;;;;;;;;;769848;181;906805;-62
2023/12/06 00:30:16;;;;;;;54.77;29.70;;;;;;;;;;778336;180;816933;-62
2023/12/06 00:32:42;;;;;;;54.30;32.42;;;;;;;;;;773177;177;818519;-62
2023/12/06 00:35:08;;;;;;;63.60;31.07;;;;;;;;;;774780;179;917548;-63
2023/12/06 00:37:34;;;;;;;58.13;31.57;;;;;;;;;;780093;179;713577;-62
2023/12/06 00:39:59;;;;;;;59.17;31.47;;;;;;;;;;772576;179;910774;-63
2023/12/06 00:42:25;;;;;;;60.50;33.87;;;;;;;;;;767662;179;814430;-66
2023/12/06 00:44:51;;;;;;;57.73;32.77;;;;;;;;;;762204;182;915705;-63
2023/12/06 00:47:17;;;;;;;57.57;32.30;;;;;;;;;;779059;177;814637;-65
2023/12/06 00:49:43;;;;;;;67.07;32.90;;;;;;;;;;771326;179;920574;-64
2023/12/06 00:52:09;;;;;;;67.57;36.30;;;;;;;;;;774578;180;919453;-65
2023/12/06 00:54:34;;;;;;;58.23;32.03;;;;;;;;;;774563;181;921128;-66
2023/12/06 00:57:00;;;;;;;52.90;32.50;;;;;;;;;;772369;181;920949;-62
2023/12/06 00:59:26;;;;;;;65.40;33.00;;;;;;;;;;774734;178;921756;-66
2023/12/06 01:01:52;;;;;;;50.43;31.47;;;;;;;;;;779572;178;824146;-65
2023/12/06 01:04:18;;;;;;;65.20;31.87;;;;;;;;;;756959;184;916836;-66
2023/12/06 01:06:44;;;;;;;56.60;33.17;;;;;;;;;;764766;180;917381;-66
2023/12/06 01:09:09;;;;;;;54.30;31.30;;;;;;;;;;780681;180;844990;-63
2023/12/06 01:11:35;;;;;;;64.20;33.93;;;;;;;;;;773183;179;916536;-63
2023/12/06 01:14:02;;;;;;;64.07;32.25;;;;;;;;;;775751;178;919407;-63
2023/12/06 01:16:27;;;;;;;52.53;31.57;;;;;;;;;;772772;179;919125;-66
2023/12/06 01:18:53;;;;;;;50.60;28.07;;;;;;;;;;776387;180;919629;-64
2023/12/06 01:21:19;;;;;;;55.27;28.77;;;;;;;;;;770719;180;918756;-63
2023/12/06 01:23:45;;;;;;;52.77;29.80;;;;;;;;;;762961;183;920232;-64
2023/12/06 01:26:10;;;;;;;61.10;30.40;;;;;;;;;;775884;180;807420;-63
2023/12/06 01:28:36;;;;;;;55.00;30.00;;;;;;;;;;774907;177;817318;-63
2023/12/06 01:31:02;;;;;;;51.27;26.40;;;;;;;;;;770624;181;918877;-63
2023/12/06 01:33:28;;;;;;;51.70;28.10;;;;;;;;;;770601;180;783361;-63
2023/12/06 01:35:54;;;;;;;54.10;27.10;;;;;;;;;;771803;181;917175;-66
2023/12/06 01:38:20;;;;;;;59.00;30.07;;;;;;;;;;773760;180;920338;-65
2023/12/06 01:40:46;;;;;;;55.72;29.00;;;;;;;;;;774695;180;919962;-65
2023/12/06 01:43:12;;;;;;;49.43;27.90;;;;;;;;;;774323;181;920102;-64
2023/12/06 01:45:37;;;;;;;53.20;28.57;;;;;;;;;;770950;180;861637;-63
2023/12/06 01:48:04;;;;;;;55.72;28.75;;;;;;;;;;774786;177;919262;-64
2023/12/06 01:50:29;;;;;;;56.08;30.02;;;;;;;;;;768979;181;918680;-64
2023/12/06 01:52:55;;;;;;;57.80;29.40;;;;;;;;;;771336;181;919586;-63
2023/12/06 01:55:21;;;;;;;53.43;30.37;;;;;;;;;;769635;181;918153;-63
2023/12/06 01:57:47;;;;;;;51.87;30.03;;;;;;;;;;775081;181;920187;-63
2023/12/06 02:00:13;;;;;;;56.83;29.87;;;;;;;;;;771638;179;918786;-64
2023/12/06 02:02:39;;;;;;;60.35;28.08;;;;;;;;;;776231;180;820687;-63
2023/12/06 02:05:05;;;;;;;51.40;27.23;;;;;;;;;;775670;179;937899;-63
2023/12/06 02:07:31;;;;;;;58.50;30.27;;;;;;;;;;770789;178;1020642;-63
2023/12/06 02:09:57;;;;;;;51.37;27.77;;;;;;;;;;773759;179;919437;-64
2023/12/06 02:12:23;;;;;;;56.70;31.10;;;;;;;;;;774048;179;815775;-64
2023/12/06 02:14:48;;;;;;;54.53;28.67;;;;;;;;;;778435;180;1022083;-64
2023/12/06 02:17:14;;;;;;;48.93;27.50;;;;;;;;;;773824;180;918051;-63
2023/12/06 02:19:40;;;;;;;52.00;28.67;;;;;;;;;;771449;181;919185;-64
2023/12/06 02:22:06;;;;;;;56.67;28.87;;;;;;;;;;778773;180;923971;-63
2023/12/06 02:24:32;;;;;;;58.87;32.33;;;;;;;;;;768193;181;914896;-63
2023/12/06 02:26:58;;;;;;;59.93;30.00;;;;;;;;;;767384;179;919724;-64
2023/12/06 02:29:24;;;;;;;53.40;28.20;;;;;;;;;;777655;181;918854;-64
2023/12/06 02:31:49;;;;;;;57.00;29.40;;;;;;;;;;773226;180;919116;-64
2023/12/06 02:34:15;;;;;;;54.27;26.77;;;;;;;;;;770044;181;913408;-64
2023/12/06 02:36:41;;;;;;;57.90;31.57;;;;;;;;;;771125;177;915016;-65
2023/12/06 02:39:08;;;;;;;49.20;28.50;;;;;;;;;;768916;181;913472;-65
2023/12/06 02:41:33;;;;;;;52.13;28.10;;;;;;;;;;768312;181;922183;-64
2023/12/06 02:43:59;;;;;;;58.65;31.15;;;;;;;;;;774989;180;816666;-63
2023/12/06 02:46:24;;;;;;;55.47;31.07;;;;;;;;;;776514;180;819334;-63
2023/12/06 02:48:51;;;;;;;56.17;29.70;;;;;;;;;;772053;180;917911;-63
2023/12/06 02:51:17;;;;;;;53.53;27.90;;;;;;;;;;770672;180;913452;-63
2023/12/06 02:53:42;;;;;;;49.10;27.57;;;;;;;;;;772429;180;913699;-64
2023/12/06 02:56:08;;;;;;;51.47;30.20;;;;;;;;;;772012;180;918719;-64
2023/12/06 02:58:34;;;;;;;50.90;28.10;;;;;;;;;;774100;178;917088;-64
2023/12/06 03:01:01;;;;;;;54.40;27.52;;;;;;;;;;779493;180;920797;-64
2023/12/06 03:03:26;;;;;;;53.53;30.43;;;;;;;;;;766931;181;919073;-64
2023/12/06 03:05:52;;;;;;;49.33;29.33;;;;;;;;;;772803;178;919244;-63
2023/12/06 03:08:18;;;;;;;70.50;31.97;;;;;;;;;;774319;179;918911;-63
2023/12/06 03:10:44;;;;;;;49.57;29.53;;;;;;;;;;779178;178;919266;-65
2023/12/06 03:13:10;;;;;;;57.40;30.97;;;;;;;;;;771314;180;918872;-64
2023/12/06 03:15:36;;;;;;;52.40;30.00;;;;;;;;;;776053;180;912643;-64
2023/12/06 03:18:01;;;;;;;59.50;31.20;;;;;;;;;;781183;178;916900;-63
2023/12/06 03:20:27;;;;;;;50.38;29.17;;;;;;;;;;772401;180;918624;-64
2023/12/06 03:22:53;;;;;;;51.40;29.23;;;;;;;;;;771253;180;916292;-63
2023/12/06 03:25:19;;;;;;;51.43;28.47;;;;;;;;;;779423;180;916297;-64
2023/12/06 03:27:45;;;;;;;54.67;28.57;;;;;;;;;;769552;178;931566;-64
2023/12/06 03:30:11;;;;;;;52.70;28.07;;;;;;;;;;770298;178;922075;-64
2023/12/06 03:32:37;;;;;;;52.17;29.93;;;;;;;;;;773552;177;918722;-64
2023/12/06 03:35:03;;;;;;;57.17;28.67;;;;;;;;;;763060;181;816400;-65
2023/12/06 03:37:29;;;;;;;49.93;27.37;;;;;;;;;;755015;181;917772;-64
2023/12/06 03:39:55;;;;;;;42.87;26.23;;;;;;;;;;771639;180;918302;-64
2023/12/06 03:42:21;;;;;;;51.73;30.27;;;;;;;;;;772327;180;854681;-63
2023/12/06 03:44:46;;;;;;;47.60;28.27;;;;;;;;;;773800;180;918647;-63
2023/12/06 03:47:12;;;;;;;49.40;30.00;;;;;;;;;;773519;181;866675;-64
2023/12/06 03:49:38;;;;;;;44.17;26.27;;;;;;;;;;779056;178;799359;-63
2023/12/06 03:52:04;;;;;;;47.50;26.10;;;;;;;;;;758361;182;918845;-64
2023/12/06 03:54:30;;;;;;;48.63;25.93;;;;;;;;;;771402;180;921398;-64
2023/12/06 03:56:56;;;;;;;59.37;28.17;;;;;;;;;;768831;181;918140;-64
2023/12/06 03:59:22;;;;;;;56.22;30.10;;;;;;;;;;767371;178;918672;-63
2023/12/06 04:01:48;;;;;;;55.43;30.90;;;;;;;;;;762453;181;921815;-64
2023/12/06 04:04:13;;;;;;;57.17;31.50;;;;;;;;;;770393;180;919599;-65
2023/12/06 04:06:39;;;;;;;54.00;30.87;;;;;;;;;;776260;179;920553;-64
2023/12/06 04:09:06;;;;;;;53.83;28.93;;;;;;;;;;774924;177;917085;-64
2023/12/06 04:11:31;;;;;;;63.00;32.33;;;;;;;;;;774185;179;918308;-63
2023/12/06 04:13:57;;;;;;;51.57;29.50;;;;;;;;;;777353;180;921545;-63
2023/12/06 04:16:23;;;;;;;53.43;31.13;;;;;;;;;;774067;180;920525;-63
2023/12/06 04:18:49;;;;;;;49.30;29.20;;;;;;;;;;772086;180;943634;-64
2023/12/06 04:21:15;;;;;;;57.47;30.97;;;;;;;;;;778666;180;919383;-64
2023/12/06 04:23:40;;;;;;;58.70;32.47;;;;;;;;;;766338;180;919966;-64
2023/12/06 04:26:06;;;;;;;46.43;29.77;;;;;;;;;;768621;181;919236;-64
2023/12/06 04:28:32;;;;;;;47.53;29.50;;;;;;;;;;774651;180;820018;-64
2023/12/06 04:30:58;;;;;;;58.10;31.60;;;;;;;;;;766852;180;918416;-64
2023/12/06 04:33:24;;;;;;;58.20;31.30;;;;;;;;;;771241;178;929978;-63
2023/12/06 04:35:50;;;;;;;59.87;28.70;;;;;;;;;;773096;178;926672;-64
2023/12/06 04:38:15;;;;;;;52.90;25.83;;;;;;;;;;779499;180;937802;-64
2023/12/06 04:40:41;;;;;;;52.05;30.62;;;;;;;;;;774909;180;920263;-65
2023/12/06 04:43:07;;;;;;;59.57;30.53;;;;;;;;;;771665;180;919473;-65
2023/12/06 04:45:33;;;;;;;56.33;30.10;;;;;;;;;;776220;180;916393;-63
2023/12/06 04:47:59;;;;;;;60.10;31.37;;;;;;;;;;768825;179;1017264;-63
2023/12/06 04:50:25;;;;;;;58.27;31.40;;;;;;;;;;771986;177;919071;-64
2023/12/06 04:52:50;;;;;;;57.93;34.53;;;;;;;;;;774535;180;915114;-64
2023/12/06 04:55:17;;;;;;;51.20;28.17;;;;;;;;;;767875;177;1021901;-64
2023/12/06 04:57:42;;;;;;;52.40;28.33;;;;;;;;;;768391;180;914107;-64
2023/12/06 05:00:09;;;;;;;45.37;27.40;;;;;;;;;;772843;177;920220;-64
2023/12/06 05:02:34;;;;;;;54.57;31.50;;;;;;;;;;778148;178;827678;-65
2023/12/06 05:05:00;;;;;;;58.13;31.20;;;;;;;;;;770585;180;908135;-64
2023/12/06 05:07:26;;;;;;;52.13;29.87;;;;;;;;;;770885;180;1015954;-64
2023/12/06 05:09:52;;;;;;;47.30;28.40;;;;;;;;;;777979;178;916941;-64
2023/12/06 05:12:18;;;;;;;49.67;27.57;;;;;;;;;;759222;181;919804;-64
2023/12/06 05:14:43;;;;;;;54.93;30.10;;;;;;;;;;771634;178;922862;-63
2023/12/06 05:17:10;;;;;;;49.50;28.90;;;;;;;;;;779459;180;919257;-64
2023/12/06 05:19:35;;;;;;;55.17;29.67;;;;;;;;;;775086;181;735967;-66
2023/12/06 05:22:01;;;;;;;50.03;28.27;;;;;;;;;;774855;177;916266;-66
2023/12/06 05:24:27;;;;;;;54.73;31.30;;;;;;;;;;768629;181;909623;-64
2023/12/06 05:26:53;;;;;;;49.80;29.83;;;;;;;;;;775947;180;926031;-64
2023/12/06 05:29:19;;;;;;;53.03;28.77;;;;;;;;;;774200;178;886720;-64
2023/12/06 05:31:44;;;;;;;54.70;30.60;;;;;;;;;;779298;180;715172;-65
2023/12/06 05:34:10;;;;;;;62.10;32.20;;;;;;;;;;781642;178;669415;-64
2023/12/06 05:36:36;;;;;;;50.90;29.03;;;;;;;;;;778229;180;631952;-64
2023/12/06 05:39:05;;;;;;;55.10;30.83;;;;;;;;;;778206;177;632109;-64
2023/12/06 05:41:28;;;;;;;51.77;29.80;;;;;;;;;;782853;179;617738;-64
2023/12/06 05:43:54;;;;;;;46.20;27.27;;;;;;;;;;774008;180;816135;-64
2023/12/06 05:46:20;;;;;;;64.97;32.00;;;;;;;;;;774413;179;913447;-64
2023/12/06 05:48:45;;;;;;;50.93;26.73;;;;;;;;;;779791;180;872973;-63
2023/12/06 05:51:12;;;;;;;58.97;32.60;;;;;;;;;;773262;177;760436;-64
2023/12/06 05:53:37;;;;;;;56.30;29.37;;;;;;;;;;775810;177;647101;-63
2023/12/06 05:56:03;;;;;;;50.00;27.63;;;;;;;;;;776332;179;618069;-64
2023/12/06 05:58:29;;;;;;;49.00;28.47;;;;;;;;;;781784;180;613817;-64
2023/12/06 06:00:55;;;;;;;50.63;28.97;;;;;;;;;;776319;180;658315;-64
2023/12/06 06:03:21;;;;;;;46.63;24.63;;;;;;;;;;773215;178;912901;-64
2023/12/06 06:05:47;;;;;;;49.33;28.20;;;;;;;;;;765662;179;918992;-65
2023/12/06 06:08:13;;;;;;;55.87;27.60;;;;;;;;;;768738;181;930406;-64
2023/12/06 06:10:38;;;;;;;50.10;28.17;;;;;;;;;;775514;178;754164;-64
2023/12/06 06:13:04;;;;;;;46.27;27.53;;;;;;;;;;781049;180;754834;-65
2023/12/06 06:15:30;;;;;;;50.23;26.87;;;;;;;;;;775372;177;911764;-65
2023/12/06 06:17:56;;;;;;;46.93;27.90;;;;;;;;;;773892;180;919022;-64
2023/12/06 06:20:22;;;;;;;51.93;28.13;;;;;;;;;;775744;177;919798;-64
2023/12/06 06:22:48;;;;;;;59.10;32.83;;;;;;;;;;778928;180;831795;-64
2023/12/06 06:25:13;;;;;;;51.87;28.53;;;;;;;;;;773606;180;919760;-65
2023/12/06 06:27:40;;;;;;;50.20;28.70;;;;;;;;;;775691;177;816628;-64
2023/12/06 06:30:06;;;;;;;65.83;32.57;;;;;;;;;;778411;180;815119;-65
2023/12/06 06:32:32;;;;;;;50.33;28.40;;;;;;;;;;773144;180;815947;-65
2023/12/06 06:34:58;;;;;;;50.37;28.80;;;;;;;;;;773322;180;902047;-66
2023/12/06 06:37:24;;;;;;;54.47;29.97;;;;;;;;;;778024;181;917183;-65
2023/12/06 06:39:49;;;;;;;63.05;33.70;;;;;;;;;;775269;178;823895;-64
2023/12/06 06:42:16;;;;;;;64.73;31.70;;;;;;;;;;774940;180;917411;-64
2023/12/06 06:44:41;;;;;;;62.10;32.43;;;;;;;;;;762555;183;917072;-65
2023/12/06 06:47:07;;;;;;;64.20;33.70;;;;;;;;;;768834;181;822374;-65
2023/12/06 06:49:33;;;;;;;72.03;35.50;;;;;;;;;;765183;180;920428;-65
2023/12/06 06:51:59;;;;;;;63.60;31.50;;;;;;;;;;764998;182;916052;-65
2023/12/06 06:54:25;;;;;;;59.37;33.13;;;;;;;;;;772654;180;920063;-64
2023/12/06 06:56:50;;;;;;;66.37;32.80;;;;;;;;;;771750;180;917151;-64
2023/12/06 06:59:16;;;;;;;75.57;34.87;;;;;;;;;;770531;180;922631;-65
2023/12/06 07:01:42;;;;;;;76.37;37.77;;;;;;;;;;778954;178;920161;-64
2023/12/06 07:04:08;;;;;;;62.40;34.47;;;;;;;;;;774426;177;919655;-64
2023/12/06 07:06:34;;;;;;;65.23;35.77;;;;;;;;;;770659;179;924744;-66
2023/12/06 07:09:00;;;;;;;74.80;36.60;;;;;;;;;;767268;181;917959;-64
2023/12/06 07:11:26;;;;;;;63.73;35.20;;;;;;;;;;771638;180;918912;-65
2023/12/06 07:13:51;;;;;;;68.20;33.97;;;;;;;;;;771995;180;918416;-66
2023/12/06 07:16:17;;;;;;;71.23;32.40;;;;;;;;;;771827;180;1021727;-64
2023/12/06 07:18:44;;;;;;;63.63;33.83;;;;;;;;;;778745;179;912633;-64
2023/12/06 07:21:09;;;;;;;67.27;35.40;;;;;;;;;;771565;180;918163;-64
2023/12/06 07:23:35;;;;;;;76.17;36.20;;;;;;;;;;773064;178;922152;-64
2023/12/06 07:26:01;;;;;;;68.10;31.90;;;;;;;;;;771479;180;917546;-64
2023/12/06 07:28:26;;;;;;;62.40;31.23;;;;;;;;;;770545;179;920638;-65
2023/12/06 07:30:52;;;;;;;60.05;30.67;;;;;;;;;;766592;179;916448;-64
2023/12/06 07:33:19;;;;;;;57.40;31.50;;;;;;;;;;772348;178;955541;-64
2023/12/06 07:35:44;;;;;;;64.30;35.40;;;;;;;;;;767264;181;916438;-65
2023/12/06 07:38:11;;;;;;;55.40;28.37;;;;;;;;;;773281;180;822161;-64
2023/12/06 07:40:36;;;;;;;55.73;30.13;;;;;;;;;;769231;178;914609;-64
2023/12/06 07:43:02;;;;;;;54.10;32.57;;;;;;;;;;774383;179;867301;-65
2023/12/06 07:45:27;;;;;;;54.93;29.20;;;;;;;;;;770238;179;821475;-65
2023/12/06 07:47:53;;;;;;;58.53;32.80;;;;;;;;;;761092;180;919693;-65
2023/12/06 07:50:20;;;;;;;54.70;31.70;;;;;;;;;;777190;181;813809;-65
2023/12/06 07:52:46;;;;;;;54.90;30.90;;;;;;;;;;772368;177;916419;-66
2023/12/06 07:55:12;;;;;;;52.33;27.53;;;;;;;;;;773316;177;921048;-65
2023/12/06 07:57:38;;;;;;;57.43;28.67;;;;;;;;;;777439;180;821342;-64
2023/12/06 08:00:04;;;;;;;59.00;32.37;;;;;;;;;;772807;180;918981;-65
2023/12/06 08:02:29;;;;;;;57.33;30.07;;;;;;;;;;777045;180;881534;-65
2023/12/06 08:04:56;;;;;;;60.17;30.75;;;;;;;;;;774642;180;918870;-64
2023/12/06 08:07:22;;;;;;;56.17;30.60;;;;;;;;;;774342;180;915335;-65
2023/12/06 08:09:49;;;;;;;59.72;31.70;;;;;;;;;;771856;180;918331;-64
2023/12/06 08:12:13;;;;;;;61.80;32.17;;;;;;;;;;772253;179;918539;-65
2023/12/06 08:14:39;;;;;;;60.97;31.33;;;;;;;;;;778981;180;928238;-65
2023/12/06 08:17:05;;;;;;;66.53;35.00;;;;;;;;;;773718;180;916577;-65
2023/12/06 08:19:31;;;;;;;68.15;34.88;;;;;;;;;;773041;178;929480;-65
2023/12/06 08:21:57;;;;;;;62.13;31.00;;;;;;;;;;778282;180;818738;-65
2023/12/06 08:24:23;;;;;;;52.40;31.90;;;;;;;;;;769519;178;916228;-65
2023/12/06 08:26:48;;;;;;;65.33;33.03;;;;;;;;;;771042;180;920300;-66
2023/12/06 08:29:14;;;;;;;64.23;33.50;;;;;;;;;;775400;181;821114;-66
2023/12/06 08:31:40;;;;;;;52.40;29.80;;;;;;;;;;775071;180;921140;-66
2023/12/06 08:34:06;;;;;;;58.30;32.93;;;;;;;;;;776610;177;617389;-66
2023/12/06 08:36:32;;;;;;;64.00;34.40;;;;;;;;;;764403;181;622935;-67
2023/12/06 08:38:58;;;;;;;65.80;31.50;;;;;;;;;;777295;180;935126;-65
2023/12/06 08:41:24;;;;;;;60.60;33.20;;;;;;;;;;773494;180;816095;-66
2023/12/06 08:43:49;;;;;;;60.43;31.87;;;;;;;;;;768417;178;913467;-65
2023/12/06 08:46:15;;;;;;;52.03;27.40;;;;;;;;;;776644;180;878456;-65
2023/12/06 08:48:41;;;;;;;53.00;30.67;;;;;;;;;;775164;180;916742;-65
2023/12/06 08:51:08;;;;;;;54.77;29.47;;;;;;;;;;772303;179;917717;-66
2023/12/06 08:53:33;;;;;;;53.92;29.52;;;;;;;;;;776779;180;918738;-65
2023/12/06 08:55:59;;;;;;;56.30;31.63;;;;;;;;;;775283;179;915619;-66
2023/12/06 08:58:24;;;;;;;55.27;29.40;;;;;;;;;;776105;180;885767;-67
2023/12/06 09:00:50;;;;;;;52.10;30.65;;;;;;;;;;771487;180;917804;-67
2023/12/06 09:03:16;;;;;;;61.40;30.77;;;;;;;;;;774414;180;925903;-67
2023/12/06 09:05:42;;;;;;;52.90;29.13;;;;;;;;;;771136;180;919091;-66
2023/12/06 09:08:08;;;;;;;60.23;29.70;;;;;;;;;;774654;180;919419;-65
2023/12/06 09:10:34;;;;;;;55.67;28.70;;;;;;;;;;779576;180;824559;-66
2023/12/06 09:13:00;;;;;;;49.20;28.43;;;;;;;;;;774668;180;812559;-67
2023/12/06 09:15:27;;;;;;;54.55;29.85;;;;;;;;;;772172;177;909820;-68
2023/12/06 09:17:51;;;;;;;58.13;30.13;;;;;;;;;;779355;177;858916;-66
2023/12/06 09:20:17;;;;;;;65.10;30.70;;;;;;;;;;759567;182;913703;-66
2023/12/06 09:22:43;;;;;;;60.23;29.10;;;;;;;;;;768771;180;922144;-66
2023/12/06 09:25:09;;;;;;;49.08;25.90;;;;;;;;;;774750;180;918935;-67
2023/12/06 09:27:35;;;;;;;51.50;26.77;;;;;;;;;;771398;180;923904;-67
2023/12/06 09:30:01;;;;;;;57.23;27.70;;;;;;;;;;769776;180;867103;-68
2023/12/06 09:32:26;;;;;;;57.63;30.50;;;;;;;;;;761675;181;832979;-67
2023/12/06 09:34:52;;;;;;;53.20;30.47;;;;;;;;;;769322;180;921185;-67
2023/12/06 09:37:18;;;;;;;51.13;27.50;;;;;;;;;;771019;180;910354;-66
2023/12/06 09:39:44;;;;;;;40.87;26.40;;;;;;;;;;771504;180;916759;-66
2023/12/06 09:42:11;;;;;;;51.60;28.77;;;;;;;;;;778698;181;779902;-68
2023/12/06 09:44:37;;;;;;;49.77;27.03;;;;;;;;;;771922;180;916146;-66
2023/12/06 09:47:02;;;;;;;64.30;29.87;;;;;;;;;;773673;178;940315;-66
2023/12/06 09:49:28;;;;;;;46.00;27.63;;;;;;;;;;776421;178;898138;-69
2023/12/06 09:51:55;;;;;;;57.97;29.53;;;;;;;;;;772343;180;857029;-69
2023/12/06 09:54:21;;;;;;;51.58;28.67;;;;;;;;;;771516;178;850210;-66
2023/12/06 09:56:47;;;;;;;60.10;31.17;;;;;;;;;;769724;178;1015323;-65
2023/12/06 09:59:12;;;;;;;51.20;27.80;;;;;;;;;;769408;179;897718;-65
2023/12/06 10:01:38;;;;;;;55.83;30.37;;;;;;;;;;763133;181;913004;-69
2023/12/06 10:04:04;;;;;;;48.90;29.03;;;;;;;;;;768994;180;918894;-66
2023/12/06 10:06:30;;;;;;;64.63;30.00;;;;;;;;;;777081;179;919166;-66
2023/12/06 10:08:58;;;;;;;56.73;32.10;;;;;;;;;;773915;177;919035;-69
2023/12/06 10:11:22;;;;;;;55.63;31.23;;;;;;;;;;772699;179;937600;-66
2023/12/06 10:13:49;;;;;;;52.77;28.13;;;;;;;;;;778018;179;919443;-67
2023/12/06 10:16:14;;;;;;;53.30;27.90;;;;;;;;;;774772;180;919006;-68
2023/12/06 10:18:40;;;;;;;46.60;26.23;;;;;;;;;;775971;178;909456;-66
2023/12/06 10:21:06;;;;;;;52.23;31.17;;;;;;;;;;759830;181;915003;-66
2023/12/06 10:23:32;;;;;;;58.30;30.90;;;;;;;;;;772493;178;695470;-68
2023/12/06 10:25:58;;;;;;;52.43;29.43;;;;;;;;;;770376;179;928284;-66
2023/12/06 10:28:24;;;;;;;51.50;29.30;;;;;;;;;;770659;180;918894;-67
2023/12/06 10:30:55;;;;;;;52.50;28.20;;;;;;;;;;768201;181;713967;-68
2023/12/06 10:33:21;;;;;;;56.37;28.60;;;;;;;;;;770769;179;923534;-66
2023/12/06 10:35:47;;;;;;;51.73;27.40;;;;;;;;;;769698;180;921153;-69
2023/12/06 10:38:13;;;;;;;57.67;28.33;;;;;;;;;;777647;180;880121;-66
2023/12/06 10:40:39;;;;;;;53.20;30.33;;;;;;;;;;770662;180;920694;-69
2023/12/06 10:43:06;;;;;;;48.00;28.70;;;;;;;;;;771864;180;920410;-65
2023/12/06 10:45:30;;;;;;;46.57;27.00;;;;;;;;;;769781;179;919637;-68
2023/12/06 10:47:56;;;;;;;50.70;28.93;;;;;;;;;;774758;179;918843;-69
2023/12/06 10:50:22;;;;;;;53.63;30.47;;;;;;;;;;769656;178;928567;-69
2023/12/06 10:52:48;;;;;;;53.20;30.97;;;;;;;;;;757952;181;918085;-70
2023/12/06 10:55:14;;;;;;;48.17;28.67;;;;;;;;;;776042;180;918023;-67
2023/12/06 10:57:39;;;;;;;52.53;27.77;;;;;;;;;;764675;178;919632;-66
2023/12/06 11:00:06;;;;;;;57.27;31.73;;;;;;;;;;767478;178;913513;-68
2023/12/06 11:02:33;;;;;;;51.00;29.53;;;;;;;;;;776589;178;919956;-68
2023/12/06 11:04:58;;;;;;;55.47;28.60;;;;;;;;;;771668;180;922455;-66
2023/12/06 11:07:25;;;;;;;61.00;31.58;;;;;;;;;;770071;180;921314;-66
2023/12/06 11:10:09;;;;;;;56.13;28.50;;;;;;;;;;770158;178;920848;-65
2023/12/06 11:12:32;;;;;;;49.90;27.03;;;;;;;;;;760845;179;922105;-66
2023/12/06 11:14:58;;;;;;;52.70;26.97;;;;;;;;;;777775;178;1017701;-67
2023/12/06 11:17:38;;;;;;;46.03;25.67;;;;;;;;;;770572;177;895615;-66
2023/12/06 11:20:05;;;;;;;55.93;27.60;;;;;;;;;;773845;179;949398;-67
2023/12/06 11:22:30;;;;;;;45.35;25.65;;;;;;;;;;775030;180;915451;-66
2023/12/06 11:24:56;;;;;;;58.30;29.20;;;;;;;;;;776989;177;934778;-67
2023/12/06 11:27:22;;;;;;;49.27;26.63;;;;;;;;;;775320;177;917048;-66
2023/12/06 11:29:48;;;;;;;47.00;27.47;;;;;;;;;;774838;177;829592;-66
2023/12/06 11:32:14;;;;;;;45.47;25.97;;;;;;;;;;775111;181;917531;-67
2023/12/06 11:34:41;;;;;;;43.97;26.20;;;;;;;;;;774916;180;854081;-66
2023/12/06 11:37:12;;;;;;;49.40;29.13;;;;;;;;;;773421;179;920664;-66
2023/12/06 11:39:38;;;;;;;48.50;27.60;;;;;;;;;;772233;180;924994;-66
2023/12/06 11:42:04;;;;;;;64.13;27.60;;;;;;;;;;778407;180;811226;-66
2023/12/06 11:44:30;;;;;;;54.03;26.67;;;;;;;;;;773336;180;913753;-65
2023/12/06 11:46:56;;;;;;;50.80;28.27;;;;;;;;;;774501;180;723090;-65
2023/12/06 11:49:24;;;;;;;44.07;25.37;;;;;;;;;;770128;181;631179;-66
2023/12/06 11:51:52;;;;;;;43.87;25.07;;;;;;;;;;775334;179;649270;-66
2023/12/06 11:54:17;;;;;;;48.00;26.10;;;;;;;;;;772768;177;921739;-65
2023/12/06 11:56:43;;;;;;;50.63;27.37;;;;;;;;;;757447;178;879160;-65
2023/12/06 11:59:09;;;;;;;45.83;26.30;;;;;;;;;;781183;177;810720;-65
2023/12/06 12:01:35;;;;;;;50.63;27.20;;;;;;;;;;772912;180;838232;-66
2023/12/06 12:04:01;;;;;;;53.63;28.33;;;;;;;;;;768834;180;920597;-64
2023/12/06 12:06:27;;;;;;;45.93;28.33;;;;;;;;;;777375;180;818174;-65
2023/12/06 12:08:52;;;;;;;50.57;26.23;;;;;;;;;;772785;178;821910;-65
2023/12/06 12:11:19;;;;;;;48.37;27.93;;;;;;;;;;772737;177;818834;-65
2023/12/06 12:13:44;;;;;;;47.13;29.10;;;;;;;;;;776608;178;865590;-64
2023/12/06 12:16:12;;;;;;;44.50;26.67;;;;;;;;;;771347;180;910368;-64
2023/12/06 12:18:36;;;;;;;41.83;25.20;;;;;;;;;;772202;180;843537;-64
2023/12/06 12:21:05;;;;;;;44.30;26.23;;;;;;;;;;777155;180;920551;-64
2023/12/06 12:23:31;;;;;;;46.87;25.63;;;;;;;;;;767998;180;809387;-64
2023/12/06 12:25:57;;;;;;;45.67;28.70;;;;;;;;;;772072;180;860892;-63
2023/12/06 12:28:23;;;;;;;49.00;26.17;;;;;;;;;;772062;180;915221;-63
2023/12/06 12:30:50;;;;;;;53.00;30.47;;;;;;;;;;779662;179;912800;-64
2023/12/06 12:33:16;;;;;;;48.10;26.00;;;;;;;;;;758973;181;929374;-63
2023/12/06 12:35:42;;;;;;;47.53;27.00;;;;;;;;;;771308;181;923543;-63
2023/12/06 12:38:08;;;;;;;49.33;29.10;;;;;;;;;;773776;177;919275;-62
2023/12/06 12:40:34;;;;;;;52.07;27.40;;;;;;;;;;764972;178;930574;-62
2023/12/06 12:43:00;;;;;;;52.60;28.47;;;;;;;;;;773514;180;919331;-63
2023/12/06 12:45:26;;;;;;;50.63;30.73;;;;;;;;;;773717;177;944368;-63
2023/12/06 12:47:51;;;;;;;45.70;27.90;;;;;;;;;;777424;180;821493;-64
2023/12/06 12:50:18;;;;;;;46.80;28.97;;;;;;;;;;770919;179;941807;-61
2023/12/06 12:52:43;;;;;;;49.47;29.27;;;;;;;;;;771468;180;815846;-62
2023/12/06 12:55:09;;;;;;;46.67;27.73;;;;;;;;;;776168;180;816291;-63
2023/12/06 12:57:35;;;;;;;47.17;25.93;;;;;;;;;;773677;179;820606;-61
2023/12/06 13:00:01;;;;;;;52.77;28.20;;;;;;;;;;775558;180;816313;-61
2023/12/06 13:02:27;;;;;;;46.93;25.97;;;;;;;;;;778553;178;816359;-61
2023/12/06 13:04:52;;;;;;;52.37;28.67;;;;;;;;;;773972;178;920105;-61
2023/12/06 13:07:18;;;;;;;47.93;27.40;;;;;;;;;;772278;180;816957;-63
2023/12/06 13:09:44;;;;;;;49.83;27.40;;;;;;;;;;770775;180;917914;-63
2023/12/06 13:12:10;;;;;;;43.27;25.63;;;;;;;;;;777100;177;630954;-62
2023/12/06 13:14:36;;;;;;;48.50;26.53;;;;;;;;;;775132;177;636173;-61
2023/12/06 13:17:04;;;;;;;47.25;24.27;;;;;;;;;;774818;178;676170;-61
2023/12/06 13:19:27;;;;;;;47.03;25.63;;;;;;;;;;778569;178;619400;-63
2023/12/06 13:21:53;;;;;;;45.33;25.53;;;;;;;;;;774896;179;816105;-60
2023/12/06 13:24:19;;;;;;;45.37;24.77;;;;;;;;;;764612;180;816657;-62
2023/12/06 13:26:45;;;;;;;38.33;22.97;;;;;;;;;;778629;177;633424;-60
2023/12/06 13:29:11;;;;;;;41.93;22.60;;;;;;;;;;775954;180;630779;-60
2023/12/06 13:31:37;;;;;;;43.67;21.67;;;;;;;;;;776444;180;623957;-62
2023/12/06 13:34:02;;;;;;;41.07;23.00;;;;;;;;;;777954;180;820032;-63
2023/12/06 13:36:28;;;;;;;42.50;22.80;;;;;;;;;;772163;179;918703;-61
2023/12/06 13:38:54;;;;;;;42.63;23.73;;;;;;;;;;773144;180;809897;-62
2023/12/06 13:41:20;;;;;;;39.25;22.30;;;;;;;;;;772572;179;915675;-61
2023/12/06 13:43:46;;;;;;;41.10;23.60;;;;;;;;;;779098;180;916139;-61
2023/12/06 13:46:12;;;;;;;43.40;23.93;;;;;;;;;;771784;180;932097;-62
2023/12/06 13:48:38;;;;;;;40.63;24.93;;;;;;;;;;772670;177;921271;-63
2023/12/06 13:51:04;;;;;;;43.10;24.57;;;;;;;;;;778588;177;916460;-62
2023/12/06 13:53:30;;;;;;;36.67;22.60;;;;;;;;;;772923;178;919438;-63
2023/12/06 13:55:55;;;;;;;46.87;25.13;;;;;;;;;;772925;180;894846;-62